createdAt,value
2022-08-14T00:02:03.024Z,49.06
2022-08-14T00:04:35.702Z,48.72
2022-08-14T00:07:14.042Z,49.31
2022-08-14T00:09:56.354Z,49.41
2022-08-14T00:12:33.071Z,50.04
2022-08-14T00:15:10.249Z,50.34
2022-08-14T00:17:47.314Z,51.02
2022-08-14T00:20:24.137Z,51.12
2022-08-14T00:22:58.939Z,50.86
2022-08-14T00:25:42.277Z,51.85
2022-08-14T00:28:15.562Z,51.87
2022-08-14T00:30:46.933Z,52.14
2022-08-14T00:33:16.920Z,51.99
2022-08-14T00:36:35.627Z,52.50
2022-08-14T00:38:34.861Z,52.32
2022-08-14T00:41:04.515Z,52.86
2022-08-14T00:43:32.727Z,53.35
2022-08-14T00:46:05.296Z,53.03
2022-08-14T00:48:38.636Z,53.03
2022-08-14T00:51:11.631Z,53.57
2022-08-14T00:53:43.016Z,53.47
2022-08-14T00:56:15.580Z,53.98
2022-08-14T00:58:45.314Z,53.59
2022-08-14T01:01:19.109Z,53.67
2022-08-14T01:03:52.754Z,53.63
2022-08-14T01:06:21.780Z,54.47
2022-08-14T01:08:52.169Z,54.87
2022-08-14T01:11:31.697Z,55.40
2022-08-14T01:14:25.297Z,55.04
2022-08-14T01:16:55.605Z,55.14
2022-08-14T01:19:43.656Z,55.97
2022-08-14T01:22:13.468Z,56.54
2022-08-14T01:24:46.806Z,56.92
2022-08-14T01:27:18.112Z,57.20
2022-08-14T01:30:00.696Z,56.47
2022-08-14T01:32:42.542Z,56.00
2022-08-14T01:35:20.850Z,55.96
2022-08-14T01:38:00.979Z,56.45
2022-08-14T01:40:36.116Z,56.70
2022-08-14T01:43:18.710Z,56.24
2022-08-14T01:45:57.917Z,56.48
2022-08-14T01:48:37.539Z,56.16
2022-08-14T01:51:19.395Z,56.40
2022-08-14T01:53:54.713Z,56.85
2022-08-14T01:56:30.742Z,56.42
2022-08-14T01:59:07.761Z,57.01
2022-08-14T02:01:41.890Z,56.86
2022-08-14T02:04:40.793Z,57.00
2022-08-14T02:06:58.951Z,57.34
2022-08-14T02:09:28.119Z,58.09
2022-08-14T02:11:59.823Z,58.04
2022-08-14T02:14:32.127Z,58.74
2022-08-14T02:17:01.300Z,58.85
2022-08-14T02:19:32.438Z,59.36
2022-08-14T02:22:03.406Z,58.70
2022-08-14T02:24:40.102Z,58.81
2022-08-14T02:28:24.891Z,59.12
2022-08-14T02:30:00.826Z,59.13
2022-08-14T02:32:37.039Z,59.30
2022-08-14T02:35:16.722Z,60.06
2022-08-14T02:37:47.487Z,60.22
2022-08-14T02:40:18.297Z,59.84
2022-08-14T02:42:54.890Z,60.39
2022-08-14T02:45:33.494Z,60.74
2022-08-14T02:48:10.350Z,60.58
2022-08-14T02:50:56.816Z,60.60
2022-08-14T02:53:29.410Z,61.11
2022-08-14T02:56:03.289Z,61.19
2022-08-14T02:58:33.353Z,61.43
2022-08-14T03:01:01.927Z,60.93
2022-08-14T03:03:31.855Z,61.01
2022-08-14T03:06:05.246Z,61.84
2022-08-14T03:08:34.184Z,62.47
2022-08-14T03:11:06.554Z,62.27
2022-08-14T03:13:36.340Z,62.65
2022-08-14T03:16:08.910Z,62.40
2022-08-14T03:18:42.333Z,62.93
2022-08-14T03:21:13.647Z,62.65
2022-08-14T03:23:42.311Z,63.09
2022-08-14T03:26:18.461Z,63.21
2022-08-14T03:29:01.183Z,63.00
2022-08-14T03:31:30.085Z,63.14
2022-08-14T03:33:59.867Z,63.11
2022-08-14T03:37:39.128Z,63.40
2022-08-14T03:39:22.450Z,63.44
2022-08-14T03:41:54.429Z,63.12
2022-08-14T03:45:25.876Z,63.58
2022-08-14T03:47:15.143Z,62.86
2022-08-14T03:49:44.745Z,63.90
2022-08-14T03:52:37.935Z,63.95
2022-08-14T03:55:06.672Z,63.71
2022-08-14T03:57:37.323Z,63.88
2022-08-14T04:00:13.451Z,64.26
2022-08-14T04:02:55.537Z,64.47
2022-08-14T04:05:23.494Z,63.41
2022-08-14T04:08:08.569Z,63.75
2022-08-14T04:10:39.529Z,63.62
2022-08-14T04:13:08.714Z,64.01
2022-08-14T04:15:40.887Z,64.53
2022-08-14T04:18:23.793Z,64.73
2022-08-14T04:20:55.233Z,64.36
2022-08-14T04:23:30.025Z,64.83
2022-08-14T04:26:02.177Z,64.59
2022-08-14T04:29:07.529Z,64.18
2022-08-14T04:32:56.677Z,64.28
2022-08-14T04:34:10.002Z,64.63
2022-08-14T04:37:07.463Z,64.49
2022-08-14T04:39:57.149Z,65.47
2022-08-14T04:42:52.162Z,65.75
2022-08-14T04:45:23.679Z,65.94
2022-08-14T04:48:10.395Z,65.91
2022-08-14T04:50:43.814Z,66.08
2022-08-14T04:53:15.598Z,66.05
2022-08-14T04:55:50.007Z,67.13
2022-08-14T04:58:32.844Z,67.23
2022-08-14T05:01:06.153Z,67.45
2022-08-14T05:03:41.122Z,67.22
2022-08-14T05:06:37.945Z,67.48
2022-08-14T05:09:00.726Z,67.07
2022-08-14T05:11:36.702Z,67.35
2022-08-14T05:14:16.779Z,68.30
2022-08-14T05:16:59.273Z,69.23
2022-08-14T05:19:30.005Z,68.83
2022-08-14T05:22:17.571Z,69.34
2022-08-14T05:24:49.716Z,69.87
2022-08-14T05:27:22.902Z,70.46
2022-08-14T05:29:55.129Z,70.94
2022-08-14T05:32:26.854Z,71.15
2022-08-14T05:34:58.176Z,71.37
2022-08-14T05:37:27.165Z,71.79
2022-08-14T05:39:56.291Z,71.81
2022-08-14T05:42:26.894Z,72.19
2022-08-14T05:44:55.895Z,71.19
2022-08-14T05:47:28.542Z,70.37
2022-08-14T05:49:58.319Z,70.00
2022-08-14T05:52:39.002Z,69.23
2022-08-14T05:55:09.671Z,69.63
2022-08-14T05:57:47.538Z,69.87
2022-08-14T06:00:28.403Z,69.09
2022-08-14T06:03:00.085Z,69.14
2022-08-14T06:05:29.551Z,69.77
2022-08-14T06:07:58.649Z,70.16
2022-08-14T06:10:30.014Z,69.80
2022-08-14T06:13:01.893Z,69.70
2022-08-14T06:15:30.512Z,69.43
2022-08-14T06:18:01.776Z,71.08
2022-08-14T06:20:30.478Z,69.27
2022-08-14T06:22:59.151Z,70.56
2022-08-14T06:25:27.986Z,70.09
2022-08-14T06:27:58.187Z,68.94
2022-08-14T06:30:45.620Z,69.01
2022-08-14T06:33:18.020Z,69.74
2022-08-14T06:35:47.011Z,70.47
2022-08-14T06:38:17.898Z,69.72
2022-08-14T06:40:47.143Z,68.92
2022-08-14T06:43:16.931Z,68.56
2022-08-14T06:45:50.195Z,68.54
2022-08-14T06:48:24.988Z,68.69
2022-08-14T06:50:54.743Z,67.76
2022-08-14T06:53:27.766Z,67.71
2022-08-14T06:56:02.154Z,67.82
2022-08-14T06:58:32.348Z,67.40
2022-08-14T07:01:26.980Z,68.25
2022-08-14T07:04:23.922Z,67.59
2022-08-14T07:06:55.763Z,67.74
2022-08-14T07:09:43.659Z,66.77
2022-08-14T07:12:34.770Z,67.12
2022-08-14T07:15:07.170Z,66.77
2022-08-14T07:17:36.519Z,66.43
2022-08-14T07:20:07.620Z,66.03
2022-08-14T07:22:56.079Z,66.00
2022-08-14T07:25:32.217Z,64.69
2022-08-14T07:28:01.103Z,64.98
2022-08-14T07:30:33.702Z,65.28
2022-08-14T07:33:03.303Z,65.56
2022-08-14T07:35:42.928Z,64.47
2022-08-14T07:38:22.811Z,64.74
2022-08-14T07:40:53.012Z,64.20
2022-08-14T07:43:21.642Z,63.49
2022-08-14T07:45:51.028Z,63.81
2022-08-14T07:48:25.085Z,63.23
2022-08-14T07:51:03.151Z,63.25
2022-08-14T07:53:40.414Z,63.94
2022-08-14T07:56:43.655Z,64.21
2022-08-14T07:58:58.790Z,64.16
2022-08-14T08:01:29.872Z,65.22
2022-08-14T08:04:00.415Z,63.97
2022-08-14T08:06:30.709Z,64.91
2022-08-14T08:09:02.851Z,62.87
2022-08-14T08:11:35.045Z,63.10
2022-08-14T08:14:16.301Z,62.74
2022-08-14T08:16:47.322Z,63.46
2022-08-14T08:19:19.329Z,63.35
2022-08-14T08:21:48.684Z,61.90
2022-08-14T08:24:18.706Z,63.04
2022-08-14T08:26:48.101Z,61.72
2022-08-14T08:29:28.233Z,61.68
2022-08-14T08:32:01.695Z,61.71
2022-08-14T08:34:33.153Z,61.53
2022-08-14T08:37:07.104Z,61.30
2022-08-14T08:40:03.120Z,61.37
2022-08-14T08:42:44.537Z,60.87
2022-08-14T08:45:17.192Z,60.86
2022-08-14T08:47:46.531Z,60.43
2022-08-14T08:50:31.564Z,61.01
2022-08-14T08:53:02.756Z,60.81
2022-08-14T08:55:34.051Z,61.33
2022-08-14T08:58:05.568Z,59.87
2022-08-14T09:00:49.012Z,59.57
2022-08-14T09:03:20.623Z,58.79
2022-08-14T09:05:54.383Z,57.93
2022-08-14T09:08:31.251Z,57.45
2022-08-14T09:11:19.137Z,58.05
2022-08-14T09:13:49.937Z,58.83
2022-08-14T09:16:21.089Z,58.34
2022-08-14T09:21:32.002Z,56.60
2022-08-14T09:24:26.244Z,57.34
2022-08-14T09:26:50.035Z,57.18
2022-08-14T09:29:20.132Z,56.40
2022-08-14T09:31:57.708Z,55.90
2022-08-14T09:34:58.390Z,53.57
2022-08-14T09:37:41.850Z,52.23
2022-08-14T09:40:20.803Z,52.97
2022-08-14T09:42:59.561Z,52.67
2022-08-14T09:45:40.023Z,52.60
2022-08-14T09:48:27.722Z,52.75
2022-08-14T09:54:19.430Z,52.71
2022-08-14T09:56:30.622Z,52.25
2022-08-14T09:59:15.303Z,52.88
2022-08-14T10:01:46.114Z,53.01
2022-08-14T10:04:35.783Z,52.14
2022-08-14T10:07:08.460Z,52.55
2022-08-14T10:09:59.440Z,52.67
2022-08-14T10:12:44.872Z,51.01
2022-08-14T10:15:18.571Z,49.69
2022-08-14T10:17:50.883Z,50.03
2022-08-14T10:20:40.326Z,48.86
2022-08-14T10:23:16.170Z,48.63
2022-08-14T10:25:51.126Z,48.62
2022-08-14T10:28:39.460Z,47.43
2022-08-14T10:31:25.631Z,47.27
2022-08-14T10:34:13.479Z,46.09
2022-08-14T10:36:47.601Z,45.79
2022-08-14T10:39:18.761Z,45.38
2022-08-14T10:41:48.726Z,43.81
2022-08-14T10:44:21.365Z,42.91
2022-08-14T10:47:40.014Z,41.20
2022-08-14T10:49:56.372Z,42.21
2022-08-14T10:52:26.549Z,40.96
2022-08-14T10:55:08.191Z,39.09
2022-08-14T10:57:36.616Z,38.97
2022-08-14T11:00:20.785Z,38.70
2022-08-14T11:03:01.451Z,40.22
2022-08-14T11:05:41.723Z,39.31
2022-08-14T11:08:13.880Z,38.63
2022-08-14T11:10:45.170Z,38.36
2022-08-14T11:13:21.298Z,36.70
2022-08-14T11:15:56.152Z,35.78
2022-08-14T11:18:32.136Z,35.69
2022-08-14T11:21:06.918Z,34.74
2022-08-14T11:23:39.886Z,34.07
2022-08-14T11:26:12.075Z,34.80
2022-08-14T11:28:46.988Z,33.21
2022-08-14T11:31:21.926Z,33.96
2022-08-14T11:33:56.806Z,34.44
2022-08-14T11:36:35.314Z,35.24
2022-08-14T11:39:34.264Z,35.87
2022-08-14T11:42:55.377Z,35.09
2022-08-14T11:44:59.745Z,35.02
2022-08-14T11:47:35.111Z,34.92
2022-08-14T11:50:24.997Z,33.00
2022-08-14T11:53:04.516Z,33.15
2022-08-14T11:55:35.980Z,32.33
2022-08-14T11:58:09.511Z,32.18
2022-08-14T12:00:47.713Z,32.02
2022-08-14T12:03:27.196Z,32.28
2022-08-14T12:06:27.850Z,32.73
2022-08-14T12:08:59.816Z,31.66
2022-08-14T12:11:43.113Z,31.84
2022-08-14T12:14:13.553Z,31.70
2022-08-14T12:17:02.120Z,33.17
2022-08-14T12:19:33.727Z,34.09
2022-08-14T12:22:03.379Z,34.55
2022-08-14T12:24:36.902Z,34.88
2022-08-14T12:27:08.391Z,35.13
2022-08-14T12:29:37.585Z,34.92
2022-08-14T12:32:08.893Z,34.17
2022-08-14T12:34:40.194Z,32.93
2022-08-14T12:37:13.777Z,32.57
2022-08-14T12:39:44.909Z,32.35
2022-08-14T12:42:34.213Z,31.85
2022-08-14T12:45:03.966Z,32.75
2022-08-14T12:47:32.537Z,32.36
2022-08-14T12:50:02.485Z,33.31
2022-08-14T12:52:36.136Z,33.24
2022-08-14T12:55:18.274Z,33.03
2022-08-14T12:57:47.759Z,34.51
2022-08-14T13:00:23.788Z,34.95
2022-08-14T13:02:55.328Z,35.31
2022-08-14T13:05:29.971Z,34.84
2022-08-14T13:08:00.591Z,34.77
2022-08-14T13:10:47.145Z,34.82
2022-08-14T13:13:18.472Z,34.78
2022-08-14T13:15:56.240Z,36.31
2022-08-14T13:18:27.730Z,37.30
2022-08-14T13:21:01.297Z,36.58
2022-08-14T13:23:36.062Z,36.30
2022-08-14T13:26:04.557Z,36.25
2022-08-14T13:28:39.824Z,36.21
2022-08-14T13:31:29.865Z,35.59
2022-08-14T13:34:00.216Z,36.70
2022-08-14T13:36:54.819Z,36.74
2022-08-14T13:39:19.598Z,36.50
2022-08-14T13:41:48.654Z,36.64
2022-08-14T13:44:28.774Z,37.46
2022-08-14T13:46:58.222Z,37.08
2022-08-14T13:49:26.313Z,37.02
2022-08-14T13:51:59.532Z,37.48
2022-08-14T13:54:32.721Z,37.98
2022-08-14T13:57:03.679Z,37.77
2022-08-14T13:59:37.290Z,37.10
2022-08-14T14:02:08.178Z,37.59
2022-08-14T14:04:40.492Z,37.50
2022-08-14T14:07:12.976Z,38.05
2022-08-14T14:09:52.743Z,36.94
2022-08-14T14:12:38.248Z,36.64
2022-08-14T14:15:11.991Z,37.17
2022-08-14T14:17:40.583Z,37.11
2022-08-14T14:20:35.037Z,36.96
2022-08-14T14:23:11.681Z,37.70
2022-08-14T14:25:46.086Z,37.76
2022-08-14T14:28:24.620Z,38.18
2022-08-14T14:30:57.000Z,38.10
2022-08-14T14:33:46.731Z,38.03
2022-08-14T14:36:21.364Z,37.88
2022-08-14T14:38:55.515Z,37.52
2022-08-14T14:41:25.682Z,37.95
2022-08-14T14:43:54.809Z,37.33
2022-08-14T14:46:35.997Z,37.52
2022-08-14T14:49:14.440Z,37.60
2022-08-14T14:51:51.173Z,38.02
2022-08-14T14:54:30.892Z,37.68
2022-08-14T14:57:00.223Z,36.99
2022-08-14T14:59:31.034Z,37.87
2022-08-14T15:02:08.151Z,38.21
2022-08-14T15:04:38.675Z,37.93
2022-08-14T15:07:12.585Z,37.97
2022-08-14T15:09:42.626Z,38.44
2022-08-14T15:12:34.802Z,38.75
2022-08-14T15:15:08.652Z,37.98
2022-08-14T15:17:41.505Z,37.15
2022-08-14T15:20:17.510Z,37.15
2022-08-14T15:22:51.313Z,36.24
2022-08-14T15:25:20.989Z,36.33
2022-08-14T15:27:51.087Z,36.08
2022-08-14T15:30:23.565Z,36.71
2022-08-14T15:32:53.259Z,36.56
2022-08-14T15:35:22.697Z,36.82
2022-08-14T15:37:55.711Z,37.09
2022-08-14T15:40:25.564Z,36.93
2022-08-14T15:42:53.455Z,36.90
2022-08-14T15:45:24.026Z,37.76
2022-08-14T15:47:52.060Z,37.75
2022-08-14T15:50:19.951Z,37.19
2022-08-14T15:52:48.239Z,36.53
2022-08-14T15:55:17.383Z,36.55
2022-08-14T15:57:51.430Z,35.78
2022-08-14T16:00:50.186Z,36.00
2022-08-14T16:03:27.612Z,36.17
2022-08-14T16:06:04.628Z,35.19
2022-08-14T16:08:33.690Z,35.33
2022-08-14T16:11:05.123Z,35.26
2022-08-14T16:13:42.942Z,34.34
2022-08-14T16:16:50.022Z,34.85
2022-08-14T16:19:09.673Z,34.85
2022-08-14T16:22:02.232Z,34.12
2022-08-14T16:24:33.004Z,33.89
2022-08-14T16:27:05.235Z,34.68
2022-08-14T16:29:37.895Z,34.68
2022-08-14T16:32:32.485Z,34.54
2022-08-14T16:34:57.410Z,35.37
2022-08-14T16:37:31.027Z,35.51
2022-08-14T16:40:03.922Z,36.50
2022-08-14T16:42:39.061Z,36.14
2022-08-14T16:45:26.139Z,36.08
2022-08-14T16:47:55.925Z,36.23
2022-08-14T16:50:40.510Z,36.19
2022-08-14T16:53:12.725Z,36.30
2022-08-14T16:55:51.017Z,35.43
2022-08-14T16:58:29.874Z,35.86
2022-08-14T17:01:22.986Z,37.21
2022-08-14T17:03:58.107Z,36.99
2022-08-14T17:06:49.723Z,36.11
2022-08-14T17:09:36.945Z,37.66
2022-08-14T17:12:33.412Z,38.27
2022-08-14T17:15:10.539Z,37.72
2022-08-14T17:17:58.045Z,36.86
2022-08-14T17:20:53.653Z,38.56
2022-08-14T17:23:16.058Z,38.52
2022-08-14T17:25:49.496Z,37.62
2022-08-14T17:31:09.364Z,37.95
2022-08-14T17:33:40.417Z,38.77
2022-08-14T17:36:21.098Z,38.92
2022-08-14T17:39:06.663Z,39.49
2022-08-14T17:41:37.887Z,40.45
2022-08-14T17:44:34.218Z,41.03
2022-08-14T17:47:13.417Z,39.51
2022-08-14T17:49:51.678Z,38.67
2022-08-14T17:52:34.682Z,39.00
2022-08-14T17:55:07.005Z,38.13
2022-08-14T17:57:41.159Z,38.30
2022-08-14T18:00:12.605Z,38.11
2022-08-14T18:02:51.011Z,39.08
2022-08-14T18:06:07.143Z,39.99
2022-08-14T18:08:32.019Z,41.17
2022-08-14T18:11:00.510Z,41.26
2022-08-14T18:13:51.324Z,41.76
2022-08-14T18:16:20.506Z,42.90
2022-08-14T18:18:51.695Z,41.67
2022-08-14T18:21:42.863Z,42.73
2022-08-14T18:24:28.287Z,42.34
2022-08-14T18:27:08.859Z,42.50
2022-08-14T18:29:43.379Z,43.56
2022-08-14T18:32:47.497Z,43.59
2022-08-14T18:35:45.273Z,43.96
2022-08-14T18:38:25.555Z,43.83
2022-08-14T18:40:56.188Z,44.39
2022-08-14T18:43:44.280Z,44.04
2022-08-14T18:46:59.528Z,43.47
2022-08-14T18:49:15.331Z,44.74
2022-08-14T18:51:44.950Z,44.07
2022-08-14T18:54:33.013Z,44.49
2022-08-14T18:57:04.028Z,44.96
2022-08-14T18:59:39.309Z,44.77
2022-08-14T19:02:43.266Z,44.50
2022-08-14T19:05:12.304Z,44.90
2022-08-14T19:07:40.851Z,44.98
2022-08-14T19:10:17.009Z,45.86
2022-08-14T19:13:11.754Z,48.81
2022-08-14T19:15:42.892Z,49.03
2022-08-14T19:18:26.420Z,50.84
2022-08-14T19:20:58.264Z,52.32
2022-08-14T19:23:43.308Z,53.42
2022-08-14T19:26:36.707Z,52.49
2022-08-14T19:29:37.955Z,52.07
2022-08-14T19:32:39.362Z,52.28
2022-08-14T19:35:49.009Z,51.87
2022-08-14T19:38:51.973Z,52.33
2022-08-14T19:41:23.872Z,51.18
2022-08-14T19:44:10.481Z,52.05
2022-08-14T19:47:00.005Z,52.57
2022-08-14T19:50:07.351Z,52.48
2022-08-14T19:52:22.719Z,53.51
2022-08-14T19:54:51.502Z,53.39
2022-08-14T19:57:23.642Z,52.86
2022-08-14T20:00:01.895Z,53.72
2022-08-14T20:02:41.843Z,52.42
2022-08-14T20:05:11.383Z,53.52
2022-08-14T20:07:59.309Z,54.98
2022-08-14T20:11:07.361Z,53.66
2022-08-14T20:13:29.457Z,53.55
2022-08-14T20:16:12.098Z,53.29
2022-08-14T20:18:51.621Z,54.62
2022-08-14T20:21:21.345Z,54.08
2022-08-14T20:23:50.251Z,55.08
2022-08-14T20:26:32.017Z,54.44
2022-08-14T20:29:07.152Z,55.73
2022-08-14T20:31:38.457Z,54.23
2022-08-14T20:34:24.989Z,55.88
2022-08-14T20:37:09.686Z,54.72
2022-08-14T20:39:43.658Z,55.10
2022-08-14T20:42:32.707Z,55.27
2022-08-14T20:45:23.712Z,55.47
2022-08-14T20:47:57.739Z,56.49
2022-08-14T20:50:28.939Z,55.82
2022-08-14T20:52:57.970Z,54.93
2022-08-14T20:55:29.266Z,56.02
2022-08-14T20:58:03.905Z,56.12
2022-08-14T21:01:00.590Z,56.37
2022-08-14T21:03:33.773Z,55.51
2022-08-14T21:06:17.346Z,55.82
2022-08-14T21:08:49.807Z,56.14
2022-08-14T21:11:21.315Z,57.03
2022-08-14T21:14:20.550Z,57.47
2022-08-14T21:16:57.951Z,56.06
2022-08-14T21:19:28.573Z,56.96
2022-08-14T21:21:58.687Z,56.40
2022-08-14T21:24:39.242Z,56.22
2022-08-14T21:27:21.970Z,56.24
2022-08-14T21:29:56.014Z,55.93
2022-08-14T21:32:47.219Z,55.16
2022-08-14T21:35:28.504Z,55.55
2022-08-14T21:37:57.175Z,54.94
2022-08-14T21:40:42.507Z,55.48
2022-08-14T21:43:18.258Z,55.87
2022-08-14T21:45:53.515Z,55.29
2022-08-14T21:48:25.381Z,55.97
2022-08-14T21:51:02.261Z,55.75
2022-08-14T21:53:58.690Z,55.42
2022-08-14T21:56:37.411Z,54.72
2022-08-14T21:59:10.711Z,54.20
2022-08-14T22:02:00.859Z,53.87
2022-08-14T22:04:32.182Z,54.12
2022-08-14T22:07:03.509Z,54.26
2022-08-14T22:09:36.562Z,54.41
2022-08-14T22:12:07.303Z,55.07
2022-08-14T22:14:43.476Z,54.57
2022-08-14T22:17:16.301Z,54.14
2022-08-14T22:19:54.577Z,53.66
2022-08-14T22:22:26.408Z,54.65
2022-08-14T22:24:59.754Z,53.74
2022-08-14T22:27:29.416Z,54.31
2022-08-14T22:29:58.628Z,55.52
2022-08-14T22:32:55.992Z,56.56
2022-08-14T22:35:15.715Z,56.57
2022-08-14T22:37:45.353Z,56.55
2022-08-14T22:40:57.619Z,57.04
2022-08-14T22:43:19.658Z,57.24
2022-08-14T22:45:55.388Z,57.53
2022-08-14T22:48:23.779Z,56.24
2022-08-14T22:50:53.724Z,56.26
2022-08-14T22:53:23.318Z,56.22
2022-08-14T22:55:52.142Z,57.58
2022-08-14T22:58:31.440Z,57.83
2022-08-14T23:01:01.423Z,56.71
2022-08-14T23:03:34.153Z,56.13
2022-08-14T23:07:02.436Z,58.06
2022-08-14T23:09:01.505Z,57.45
2022-08-14T23:11:42.488Z,57.73
2022-08-14T23:14:12.423Z,58.20
2022-08-14T23:16:42.617Z,59.06
2022-08-14T23:19:11.271Z,58.71
2022-08-14T23:21:39.357Z,58.14
2022-08-14T23:24:17.010Z,57.35
2022-08-14T23:26:53.861Z,57.54
2022-08-14T23:29:22.359Z,57.35
2022-08-14T23:31:50.734Z,57.76
2022-08-14T23:34:21.272Z,57.86
2022-08-14T23:36:53.340Z,58.11
2022-08-14T23:39:30.540Z,58.42
2022-08-14T23:42:03.780Z,56.95
2022-08-14T23:44:35.355Z,56.15
2022-08-14T23:47:10.805Z,55.78
2022-08-14T23:49:56.668Z,54.76
2022-08-14T23:52:50.401Z,55.39
2022-08-14T23:55:18.777Z,56.02
2022-08-14T23:57:57.698Z,55.41
